Cream Ridge, New Jersey
Current Conditions -  °F | °C
As of 4:58 PM on Sunday 25 Jan 2015 (Local Time) from KWRI Reporting Station
Overcast Overcast  
Wind Chill: 37°   Ceiling: 4000
Heat Index: 41°   Visibility: 10mi
Dew Point: 31°   Wind: 6mph
Humidity: 67%   Direction: 310°NW
Pressure: 29.83"   Gusts: NA
Location:  40.14°N, 74.52°W
Report Text: KWRI 252158Z AUTO 31005KT 10SM OVC040 05/M01 A2983 RMK AO2 SLP106 T00491007
Loading
Personal Weather Stations






























Interactive Weather Map New forecast layout! Learn more

10-Day Weather Forecast

Advertisements
Track Severe Weather on mobile